Bango, Nevada Weather observations

Data are for 10 minute period ending at time listed.
 Day   Time    Ave.   Ave.  Ave.  Vector   Max.   Stn.    Total    Solar   Ave.  
  of    of     Air    Rel.  Wind   Wind    Wind   Baro.  Precip.   Rad.    Soil  
Year   Day     Temp.  Hum.  Speed  Dir.    Gust   Pres.                    Temp. 
2015   (PST)    F      %     mph   deg.    mph     mb.     in.     W/m2     F    
--------------------------------------------------------------------------------- 
 241    6:30   75.4    26    4.9     2      8.7   873.5    0.00      64    29.1  
 241    6:40   75.5    27    5.5    51      8.7   873.6    0.00      77    29.0  
 241    6:50   75.1    27    4.4    96      6.9   873.7    0.00      91    29.0  
 241    7:00   75.6    27    3.8   334      7.8   873.7    0.00     110    28.9  
 241    7:10   76.0    26    4.7   295      8.7   873.8    0.00     134    28.9  
 241    7:20   76.5    26    2.7   239      5.1   874.0    0.00     149    28.8  
 241    7:30   76.7    26    4.5   191      6.9   874.0    0.00     191    28.8  
 241    7:40   77.0    26    7.0   175      9.6   873.9    0.00     254    28.7  
 241    7:50   77.5    26    8.0   178     11.4   874.0    0.00     286    28.7  
 241    8:00   77.9    25    8.6   186     11.4   874.0    0.00     310    28.6  
 241    8:10   78.5    25   11.1   206     17.6   874.0    0.00     325    28.6  
 241    8:20   78.9    24   17.2   221     23.0   874.0    0.00     338    28.6  
 241    8:30   78.9    24   17.4   220     21.2   874.0    0.00     406    28.5  
 241    8:40   79.5    24   14.1   212     19.4   874.2    0.00     477    28.5  
 241    8:50   80.3    24   15.6   226     20.3   874.2    0.00     552    28.5  
 241    9:00   80.8    23   13.9   211     18.5   874.3    0.00     646    28.4  
 241    9:10   81.2    22   15.4   187     24.8   874.2    0.00     661    28.4  
 241    9:20   81.3    22   16.0   189     22.1   874.1    0.00     732    28.4  
 241    9:30   82.2    20   17.2   196     26.6   874.0    0.00     818    28.4  
 241    9:40   83.0    20   17.3   201     24.8   874.0    0.00     866    28.4  
 241    9:50   83.0    19   17.7   188     24.8   874.0    0.00     811    28.4  
 241   10:00   83.5    18   20.7   191     28.4   874.0    0.00     763    28.4  
 241   10:10   84.1    17   19.2   198     27.5   873.9    0.00     809    28.4  
 241   10:20   84.6    16   16.9   194     24.8   873.8    0.00     744    28.4  
 241   10:30   85.4    16   19.5   202     30.1   873.8    0.00     731    28.4  
 241   10:40   85.1    16   18.9   214     29.2   873.7    0.00     835    28.5  
 241   10:50   85.2    16   18.6   212     26.6   873.6    0.00     848    28.5  
 241   11:00   85.8    15   18.4   201     28.4   873.5    0.00     839    28.5  
 241   11:10   85.9    15   17.6   197     25.7   873.4    0.00     850    28.6  
 241   11:20   86.1    15   17.5   191     28.4   873.3    0.00     858    28.6  
 241   11:30   86.7    15   19.3   184     26.6   873.1    0.00     804    28.7  
 241   11:40   86.9    15   13.6   198     24.8   873.1    0.00     796    28.8  
 241   11:50   87.3    14   16.6   203     28.4   872.9    0.00     844    28.8  
 241   12:00   87.7    14   17.8   177     25.7   872.7    0.00     735    28.9  
 241   12:10   87.5    14   13.8   196     24.8   872.6    0.00     763    29.0  
 241   12:20   88.9    14   17.1   220     32.8   872.5    0.00     746    29.1  
 241   12:30   89.0    13   16.7   195     31.0   872.4    0.00     844    29.2  
 241   12:40   89.3    14   21.3   221     31.9   872.2    0.00     838    29.2  
 241   12:50   89.2    14   22.0   213     37.3   872.1    0.00     666    29.4  
 241   13:00   89.2    14   24.3   215     36.4   872.1    0.00     595    29.5  
 241   13:10   88.3    15   23.4   216     34.6   872.1    0.00     533    29.6  
 241   13:20   88.1    17   25.3   219     35.5   872.0    0.00     675    29.7  
 241   13:30   89.5    16   24.9   227     34.6   872.0    0.00     936    29.8  
 241   13:40   89.0    16   26.6   220     39.1   871.9    0.00     835    29.9  
 241   13:50   89.5    16   25.7   222     39.1   871.8    0.00     943    30.0  
 241   14:00   89.4    16   27.6   227     40.9   871.7    0.00     858    30.1  
 241   14:10   88.9    16   28.1   229     36.4   871.7    0.00     482    30.2  
 241   14:20   88.6    18   25.0   239     37.3   871.7    0.00     733    30.3  
 241   14:30   87.8    19   24.3   239     35.5   871.7    0.00     552    30.4  
 241   14:40   88.2    19   24.1   239     37.3   871.6    0.00     582    30.5  
 241   14:50   87.6    19   28.3   239     38.2   871.5    0.00     521    30.6  
 241   15:00   87.0    20   27.7   249     36.4   871.4    0.00     518    30.7  
 241   15:10   86.7    20   28.8   241     39.1   871.4    0.00     458    30.8  
 241   15:20   86.5    20   25.2   242     34.6   871.5    0.00     354    30.9  
 241   15:30   85.8    21   28.9   245     38.2   871.4    0.00     375    31.0  
 241   15:40   85.2    22   28.4   244     39.1   871.4    0.00     269    31.1  
 241   15:50   84.4    22   30.2   239     44.5   871.3    0.00     202    31.1  
 241   16:00   83.8    22   30.6   244     40.9   871.3    0.00     209    31.2  
 241   16:10   83.7    22   29.0   242     39.1   871.2    0.00     177    31.3  
 241   16:20   83.1    22   30.7   243     40.9   871.1    0.00     155    31.4  
 241   16:30   83.0    22   30.9   238     42.7   871.2    0.00     161    31.5  
 241   16:40   82.5    23   32.5   239     42.7   871.2    0.00     167    31.5  
 241   16:50   82.4    23   29.9   244     39.1   871.4    0.00     142    31.6  
 241   17:00   81.6    24   32.7   243     42.7   871.3    0.00     112    31.6  
 241   17:10   81.1    25   28.4   246     38.2   871.5    0.00     104    31.7  
 241   17:20   80.7    25   30.2   244     39.1   871.5    0.00     126    31.7  
 241   17:30   80.9    25   29.4   238     40.0   871.6    0.00     153    31.7  
 241   17:40   80.5    26   29.0   235     37.3   871.6    0.00     112    31.7  
 241   17:50   79.9    26   29.0   231     40.0   871.6    0.00      87    31.8  
 241   18:00   80.1    26   26.6   235     37.3   871.6    0.00     119    31.8  
 241   18:10   79.9    27   25.6   234     31.9   871.6    0.00      86    31.8  
 241   18:20   79.5    27   25.0   236     32.8   871.6    0.00      55    31.8  
 241   18:30   78.9    27   24.2   236     31.0   871.6    0.00      29    31.8  
 241   18:40   78.4    27   23.9   236     32.8   871.6    0.00      15    31.8  
 241   18:50   77.9    27   25.0   244     32.8   871.7    0.00       2    31.8  
 241   19:00   77.3    27   24.7   248     33.7   871.9    0.00       0    31.8  
 241   19:10   76.8    28   21.9   245     31.0   872.0    0.00       0    31.7  
 241   19:20   76.4    28   22.1   250     32.8   872.0    0.00       0    31.7  
 241   19:30   76.0    29   20.2   256     31.0   872.1    0.00       0    31.7  
 241   19:40   75.7    29   21.6   254     31.9   872.2    0.00       0    31.6  
 241   19:50   75.2    29   20.4   255     28.4   872.4    0.00       0    31.6  
 241   20:00   75.0    29   19.7   255     26.6   872.6    0.00       0    31.6  
 241   20:10   74.8    28   19.4   251     29.2   872.8    0.00       0    31.5  
 241   20:20   74.4    29   18.1   251     28.4   873.1    0.00       0    31.5  
 241   20:30   74.1    29   17.2   250     26.6   873.4    0.00       0    31.5  
 241   20:40   73.6    29   11.6   259     19.4   873.7    0.00       0    31.4  
 241   20:50   73.1    30   11.1   262     16.7   873.7    0.00       0    31.4  
 241   21:00   72.9    30   11.0   266     16.7   873.7    0.00       0    31.3  
 241   21:10   72.6    30   12.2   264     17.6   873.7    0.00       0    31.3  
 241   21:20   72.2    31   13.2   260     17.6   873.4    0.00       0    31.2  
 241   21:30   72.0    31   16.3   256     23.9   873.3    0.00       0    31.1  
 241   21:40   71.9    31   16.1   259     23.9   873.3    0.00       0    31.1  
 241   21:50   71.4    31   12.9   260     18.5   873.5    0.00       0    31.0  
 241   22:00   70.6    32   10.4   257     14.1   873.8    0.00       0    31.0  
 241   22:10   70.8    32   13.1   238     20.3   873.8    0.00       0    30.9  
 241   22:20   70.6    32   13.6   230     17.6   873.6    0.00       0    30.8  
 241   22:30   70.2    32   12.1   238     18.5   873.4    0.00       0    30.8  
 241   22:40   70.6    32   12.4   245     21.2   873.4    0.00       0    30.7  
 241   22:50   70.8    31   14.9   255     22.1   873.5    0.00       0    30.6  
 241   23:00   70.3    32   10.7   265     17.6   873.9    0.00       0    30.6  
 241   23:10   69.9    33   10.2   282     14.1   874.0    0.00       0    30.5  
 241   23:20   69.5    33   10.2   279     15.8   874.0    0.00       0    30.4  
 241   23:30   68.3    35   13.2   263     17.6   873.8    0.00       0    30.4  
 241   23:40   68.6    35   12.3   271     16.7   873.8    0.00       0    30.3  
 241   23:50   68.6    35   10.1   295     14.9   873.9    0.00       0    30.2  
 242    0:00   68.9    35   10.3   298     14.1   873.9    0.00       0    30.1  
 242    0:10   68.2    36   10.0   265     13.2   873.9    0.00       0    30.1  
 242    0:20   67.9    36   12.3   272     14.9   873.9    0.00       0    30.0  
 242    0:30   68.1    36   11.1   293     14.1   873.9    0.00       0    29.9  
 242    0:40   68.3    37   11.8   273     16.7   873.6    0.00       0    29.9  
 242    0:50   68.3    37   14.2   260     18.5   873.4    0.00       0    29.8  
 242    1:00   67.2    40   12.4   276     16.7   873.5    0.00       0    29.7  
 242    1:10   68.2    40   15.0   301     19.4   873.7    0.00       0    29.6  
 242    1:20   68.3    40   13.2   286     17.6   873.5    0.00       0    29.6  
 242    1:30   66.6    43   15.2   270     19.4   873.3    0.00       0    29.5  
 242    1:40   65.5    45   12.7   274     17.6   873.3    0.00       0    29.4  
 242    1:50   66.0    44   10.0   291     14.1   873.5    0.00       0    29.4  
 242    2:00   66.3    42    8.2   303     11.4   873.5    0.00       0    29.3  
 242    2:10   66.0    42    4.7   278      8.7   873.6    0.00       0    29.2  
 242    2:20   65.5    42    7.5   262     10.5   873.5    0.00       0    29.1  
 242    2:30   65.8    41   10.4   249     14.9   873.5    0.00       0    29.1  
 242    2:40   64.4    44    6.9   129     10.5   873.6    0.00       0    29.0  
 242    2:50   62.1    51    7.0    70     12.3   873.6    0.00       0    29.0  
 242    3:00   65.3    44    4.8    70     11.4   873.6    0.00       0    28.9  
 242    3:10   63.5    47    4.1   108      7.8   873.8    0.00       0    28.8  
 242    3:20   64.0    47    5.5    57     10.5   873.8    0.00       0    28.8  
 242    3:30   61.9    50    4.2    78      6.9   873.8    0.00       0    28.7  
 242    3:40   61.6    51    2.8    63      5.1   873.8    0.00       0    28.6  
 242    3:50   60.3    52    4.8   318      6.9   873.9    0.00       0    28.5  
 242    4:00   59.8    54    4.6   358      6.9   873.9    0.00       0    28.5  
 242    4:10   59.8    54    3.9   347      6.0   873.8    0.00       0    28.4  
 242    4:20   59.9    54    3.9   341      6.0   873.8    0.00       0    28.3  
 242    4:30   59.0    55    2.8    38      5.1   873.9    0.00       0    28.2  
 242    4:40   59.9    55    1.0    46      3.3   873.7    0.00       0    28.2  
 242    4:50   57.8    57    3.7   230      6.9   873.6    0.00       0    28.1  
 242    5:00   57.0    56    2.5    96      5.1   873.9    0.00       0    28.0  
 242    5:10   56.3    59    1.1   110      4.2   873.8    0.00       0    28.0  
 242    5:20   56.6    59    3.3   341      5.1   873.8    0.00       1    27.9  
 242    5:30   57.1    56    3.0   285      4.2   874.0    0.00       6    27.8  
 242    5:40   57.0    56    2.6   133      4.2   874.2    0.00      21    27.8  
 242    5:50   58.7    54    2.4   223      4.2   874.2    0.00      46    27.7  
 242    6:00   57.1    55    4.1   196      6.9   874.4    0.00      77    27.6  
 242    6:10   58.9    54    3.8   166      6.9   874.4    0.00     112    27.5  
 242    6:20   60.4    51    4.6   219      7.8   874.4    0.00     148    27.5  

Return to Garden Spring, Nevada graphs page.


Western Regional Climate Center,wrcc@dri.edu